Time;durP1;ratioP1;P1;durP2;ratioP2;P2;SDS_P1;SDS_P2;PMS_P1;PMS_P2;Temp;Humidity;BMP_temperature;BMP_pressure;BME280_temperature;BME280_humidity;BME280_pressure;Samples;Min_cycle;Max_cycle;Signal;HPM_P1;HPM_P2
2022/07/28 00:01:06;;;;;;;3.70;1.33;;;13.80;99.90;;;-144.05;54.41;125687.94;5037861;28;20436;-90
2022/07/28 00:03:31;;;;;;;7.53;1.63;;;13.80;99.90;;;-144.05;54.62;125687.94;5037144;28;20061;-89
2022/07/28 00:05:57;;;;;;;4.50;1.95;;;13.70;99.90;;;-144.05;54.65;125687.94;5037125;28;20034;-91
2022/07/28 00:08:23;;;;;;;3.78;2.08;;;13.70;99.90;;;-144.05;54.89;125687.94;5037011;28;20096;-88
2022/07/28 00:10:49;;;;;;;5.38;2.10;;;13.70;99.90;;;-144.05;55.14;125687.94;5039105;28;20029;-89
2022/07/28 00:13:15;;;;;;;4.43;1.88;;;13.70;99.90;;;-144.05;55.14;125687.94;5036190;28;20045;-87
2022/07/28 00:15:41;;;;;;;7.03;1.98;;;13.70;99.90;;;-144.05;55.08;125687.94;5028880;28;20470;-87
2022/07/28 00:18:07;;;;;;;12.32;1.50;;;13.70;99.90;;;-144.05;55.02;125687.94;5039151;28;20109;-89
2022/07/28 00:20:33;;;;;;;6.38;1.67;;;13.70;99.90;;;-144.05;55.08;125687.94;5018682;28;20030;-92
2022/07/28 00:22:59;;;;;;;4.18;1.40;;;13.70;99.90;;;-144.05;55.04;125687.94;5033553;28;20073;-89
2022/07/28 00:25:25;;;;;;;5.13;1.20;;;13.70;99.90;;;-144.05;55.11;125687.94;5033475;28;20052;-90
2022/07/28 00:27:51;;;;;;;3.00;1.40;;;13.70;99.90;;;-144.05;55.06;125687.94;5033499;28;20037;-89
2022/07/28 00:30:17;;;;;;;5.65;1.63;;;13.70;99.90;;;-144.05;55.11;125687.94;5016433;28;20060;-88
2022/07/28 00:32:43;;;;;;;4.93;2.08;;;13.70;99.90;;;-144.05;55.13;125687.94;5034806;28;20152;-89
2022/07/28 00:35:11;;;;;;;5.20;2.00;;;13.70;99.90;;;-144.05;55.47;125687.94;5037217;28;20066;-89
2022/07/28 00:37:37;;;;;;;5.28;2.03;;;13.60;99.90;;;-144.05;55.69;125687.94;5022445;28;20033;-88
2022/07/28 00:40:04;;;;;;;3.97;1.73;;;13.60;99.90;;;-144.05;55.69;125687.94;5038533;28;20030;-91
2022/07/28 00:42:30;;;;;;;5.70;1.67;;;13.60;99.90;;;-144.05;55.77;125687.94;5039053;28;20030;-89
2022/07/28 00:44:56;;;;;;;4.95;1.40;;;13.60;99.90;;;-144.05;55.75;125687.94;5021473;28;20069;-90
2022/07/28 00:47:22;;;;;;;4.70;1.58;;;13.60;99.90;;;-144.05;55.55;125687.94;5037537;28;20080;-88
2022/07/28 00:49:49;;;;;;;10.38;1.85;;;13.60;99.90;;;-144.05;55.78;125687.94;5021779;28;20026;-89
2022/07/28 00:52:17;;;;;;;4.03;1.48;;;13.50;99.90;;;-144.05;55.82;125687.94;5036617;28;20188;-88
2022/07/28 00:54:43;;;;;;;7.70;1.23;;;13.60;99.90;;;-144.05;55.68;125687.94;5036852;28;20391;-91
2022/07/28 00:57:09;;;;;;;2.65;1.20;;;13.60;99.90;;;-144.05;55.87;125687.94;5036673;28;20037;-89
2022/07/28 00:59:35;;;;;;;3.28;1.33;;;13.50;99.90;;;-144.05;56.15;125687.94;5036826;28;20419;-89
2022/07/28 01:02:02;;;;;;;2.13;1.15;;;13.50;99.90;;;-144.05;56.14;125687.94;5036844;28;20112;-89
2022/07/28 01:04:30;;;;;;;2.50;1.10;;;13.50;99.90;;;-144.05;56.16;125687.94;5037132;28;20041;-89
2022/07/28 01:07:42;;;;;;;4.60;1.10;;;13.50;99.90;;;-144.05;56.50;125687.94;5036823;28;20496;-89
2022/07/28 01:10:39;;;;;;;4.68;1.15;;;13.50;99.90;;;-144.05;56.62;125687.94;5036614;28;20033;-89
2022/07/28 01:13:58;;;;;;;6.05;1.30;;;13.40;99.90;;;-144.05;56.50;125687.94;5021359;28;20022;-90
2022/07/28 01:16:27;;;;;;;4.85;1.02;;;13.40;99.90;;;-144.05;56.30;125687.94;5003311;28;20049;-90
2022/07/28 01:19:14;;;;;;;2.55;0.88;;;13.40;99.90;;;-144.05;56.39;125687.94;5036206;28;20029;-89
2022/07/28 01:21:46;;;;;;;3.55;1.13;;;13.40;99.90;;;-144.05;56.48;125687.94;5019291;28;20026;-90
2022/07/28 01:24:39;;;;;;;2.35;1.20;;;13.40;99.90;;;-144.05;56.54;125687.94;5036364;28;20068;-88
2022/07/28 01:27:42;;;;;;;3.53;1.45;;;13.40;99.90;;;-144.05;56.30;125687.94;5036128;28;20026;-88
2022/07/28 01:30:41;;;;;;;4.38;1.77;;;13.40;99.90;;;-144.05;56.67;125687.94;5019224;28;20025;-87
2022/07/28 01:33:41;;;;;;;1.95;0.98;;;13.30;99.90;;;-144.05;56.84;125687.94;5035821;28;20033;-91
2022/07/28 01:36:16;;;;;;;3.08;1.10;;;13.30;99.90;;;-144.05;57.00;125687.94;5036207;28;20041;-89
2022/07/28 01:38:47;;;;;;;4.55;1.45;;;13.30;99.90;;;-144.05;57.07;125687.94;5036210;28;20037;-87
2022/07/28 01:41:22;;;;;;;5.25;1.50;;;13.20;99.90;;;-144.05;57.25;125687.94;5035490;28;20057;-87
2022/07/28 01:44:07;;;;;;;5.95;1.63;;;13.20;99.90;;;-144.05;57.49;125687.94;5019447;28;20030;-89
2022/07/28 01:46:36;;;;;;;3.60;1.30;;;13.10;99.90;;;-144.05;57.59;125687.94;5034864;28;20045;-89
2022/07/28 01:49:05;;;;;;;2.58;1.23;;;13.10;99.90;;;-144.05;57.99;125687.94;5035549;28;20414;-88
2022/07/28 01:51:36;;;;;;;4.55;1.88;;;13.00;99.90;;;-144.05;58.15;125687.94;5035774;28;20037;-89
2022/07/28 01:54:05;;;;;;;4.13;1.58;;;13.00;99.90;;;-144.05;58.23;125687.94;5020331;28;20037;-87
2022/07/28 01:56:34;;;;;;;3.40;1.58;;;13.00;99.90;;;-144.05;58.38;125687.94;5035732;28;20052;-88
2022/07/28 01:59:10;;;;;;;6.35;1.40;;;13.00;99.90;;;-144.05;58.87;125687.94;5035425;28;20365;-89
2022/07/28 02:01:44;;;;;;;5.00;1.25;;;13.00;99.90;;;-144.05;58.89;125687.94;5035691;28;20044;-87
2022/07/28 02:04:14;;;;;;;2.33;0.90;;;12.90;99.90;;;-144.05;58.95;125687.94;5018698;28;20048;-87
2022/07/28 02:06:43;;;;;;;2.67;1.30;;;13.00;99.90;;;-144.05;59.10;125687.94;5019343;28;20089;-89
2022/07/28 02:09:11;;;;;;;3.90;1.15;;;12.90;99.90;;;-144.05;58.81;125687.94;5034178;28;20032;-87
2022/07/28 02:11:40;;;;;;;8.50;1.90;;;12.90;99.90;;;-144.05;59.23;125687.94;5019069;28;20026;-88
2022/07/28 02:14:15;;;;;;;4.65;1.20;;;12.90;99.90;;;-144.05;59.51;125687.94;5037453;28;20052;-88
2022/07/28 02:16:47;;;;;;;3.38;1.77;;;12.80;99.90;;;-144.05;59.62;125687.94;5037676;28;20034;-85
2022/07/28 02:19:17;;;;;;;5.20;1.83;;;12.80;99.90;;;-144.05;59.99;125687.94;5037943;28;20102;-87
2022/07/28 02:21:49;;;;;;;5.65;1.80;;;12.70;99.90;;;-144.05;60.32;125687.94;5037865;28;20033;-89
2022/07/28 02:24:21;;;;;;;2.55;1.20;;;12.70;99.90;;;-144.05;60.38;125687.94;5035116;28;20032;-86
2022/07/28 02:26:59;;;;;;;6.40;1.58;;;12.70;99.90;;;-144.05;60.93;125687.94;5034144;28;20487;-86
2022/07/28 02:29:32;;;;;;;5.63;1.50;;;12.70;99.90;;;-144.05;60.86;125687.94;5041683;28;20380;-86
2022/07/28 02:32:36;;;;;;;3.92;1.70;;;12.60;99.90;;;-144.05;61.06;125687.94;5044786;28;20037;-91
2022/07/28 02:35:33;;;;;;;4.88;1.40;;;12.60;99.90;;;-144.05;61.21;125687.94;5037634;28;20097;-87
2022/07/28 02:38:19;;;;;;;4.25;1.63;;;12.60;99.90;;;-144.05;61.28;125687.94;5038616;28;20021;-89
2022/07/28 02:40:50;;;;;;;3.80;1.60;;;12.60;99.90;;;-144.05;61.13;125687.94;5037293;28;20029;-90
2022/07/28 02:43:30;;;;;;;8.07;1.80;;;12.60;99.90;;;-144.05;61.39;125687.94;5036771;28;20286;-91
2022/07/28 02:46:08;;;;;;;4.95;1.30;;;12.50;99.90;;;-144.05;61.16;125687.94;5036700;28;20030;-90
2022/07/28 02:48:43;;;;;;;4.97;1.70;;;12.60;99.90;;;-144.05;61.67;125687.94;5037065;28;20033;-89
2022/07/28 02:51:12;;;;;;;7.20;1.50;;;12.50;99.90;;;-144.05;61.74;125687.94;5036118;28;20390;-89
2022/07/28 02:53:40;;;;;;;8.07;1.63;;;12.50;99.90;;;-144.05;62.11;125687.94;5036705;28;20021;-91
2022/07/28 02:56:08;;;;;;;4.88;1.38;;;12.50;99.90;;;-144.05;62.03;125687.94;5036761;28;20100;-89
2022/07/28 02:58:37;;;;;;;6.63;2.05;;;12.50;99.90;;;-144.05;62.46;125687.94;5038716;28;20456;-89
2022/07/28 03:01:04;;;;;;;8.80;1.90;;;12.40;99.90;;;-144.05;62.18;125687.94;5037287;28;20586;-89
2022/07/28 03:03:33;;;;;;;5.28;1.80;;;12.40;99.90;;;-144.05;62.18;125687.94;5035348;28;20424;-89
2022/07/28 03:06:05;;;;;;;6.78;1.98;;;12.40;99.90;;;-144.05;62.93;125687.94;5035850;28;20033;-89
2022/07/28 03:08:31;;;;;;;4.50;1.55;;;12.40;99.90;;;-144.05;62.67;125687.94;5036534;28;20022;-88
2022/07/28 03:11:13;;;;;;;4.68;1.52;;;12.40;99.90;;;-144.05;62.85;125687.94;5036498;28;20025;-89
2022/07/28 03:13:39;;;;;;;9.98;1.70;;;12.40;99.90;;;-144.05;62.77;125687.94;5036726;28;20030;-88
2022/07/28 03:16:07;;;;;;;5.28;1.90;;;12.30;99.90;;;-144.05;63.33;125687.94;5036463;28;20033;-90
2022/07/28 03:18:34;;;;;;;5.32;1.45;;;12.30;99.90;;;-144.05;63.31;125687.94;5038686;28;20599;-89
2022/07/28 03:21:00;;;;;;;6.50;1.88;;;12.30;99.90;;;-144.05;63.56;125687.94;5039684;28;20102;-91
2022/07/28 03:23:37;;;;;;;5.82;2.00;;;12.20;99.90;;;-144.05;63.82;125687.94;5038930;28;20032;-90
2022/07/28 03:26:46;;;;;;;9.15;1.98;;;12.30;99.90;;;-144.05;63.79;125687.94;5036573;28;20116;-89
2022/07/28 03:29:16;;;;;;;3.85;1.70;;;12.20;99.90;;;-144.05;63.89;125687.94;5035734;28;20022;-87
2022/07/28 03:32:33;;;;;;;5.43;1.88;;;12.20;99.90;;;-144.05;64.25;125687.94;5036448;28;20096;-89
2022/07/28 03:35:00;;;;;;;6.90;1.85;;;12.20;99.90;;;-144.05;64.60;125687.94;5036603;28;20025;-88
2022/07/28 03:38:04;;;;;;;7.97;2.10;;;12.10;99.90;;;-144.05;65.20;125687.94;5036044;28;20044;-87
2022/07/28 03:40:32;;;;;;;3.08;1.83;;;12.00;99.90;;;-144.05;64.92;125687.94;5026359;28;20048;-87
2022/07/28 03:43:05;;;;;;;7.32;2.63;;;12.10;99.90;;;-144.05;64.93;125687.94;5034943;28;20577;-88
2022/07/28 03:45:31;;;;;;;13.80;2.30;;;12.00;99.90;;;-144.05;65.16;125687.94;5034875;28;20033;-91
2022/07/28 03:47:58;;;;;;;5.15;1.75;;;12.00;99.90;;;-144.05;65.56;125687.94;5034652;28;20096;-89
2022/07/28 03:50:27;;;;;;;4.55;1.92;;;12.00;99.90;;;-144.05;65.56;125687.94;5051648;28;20487;-88
2022/07/28 03:52:56;;;;;;;5.10;1.75;;;12.00;99.90;;;-144.05;65.38;125687.94;5035112;28;20030;-90
2022/07/28 03:55:23;;;;;;;5.10;2.10;;;12.00;99.90;;;-144.05;65.59;125687.94;5034819;28;20026;-89
2022/07/28 03:57:51;;;;;;;8.65;2.30;;;12.00;99.90;;;-144.05;65.65;125687.94;5035804;28;20084;-89
2022/07/28 04:00:19;;;;;;;5.25;2.10;;;12.00;99.90;;;-144.05;65.89;125687.94;5035004;28;20030;-88
2022/07/28 04:02:46;;;;;;;5.50;2.13;;;12.00;99.90;;;-144.05;65.81;125687.94;5035025;28;20467;-89
2022/07/28 11:55:46;;;;;;;3.35;1.17;;;26.50;60.70;;;-144.05;28.29;125687.94;4954958;28;20516;-90
2022/07/28 11:59:32;;;;;;;3.35;1.48;;;26.80;60.40;;;-144.05;28.97;125687.94;4955567;28;20126;-90
2022/07/28 12:03:57;;;;;;;;;;;;;;;;;;;;;
2022/07/28 12:07:57;;;;;;;;;;;;;;;;;;;;;
2022/07/28 12:11:47;;;;;;;;;;;;;;;;;;;;;
2022/07/28 12:14:49;;;;;;;3.33;1.00;;;26.60;61.00;;;-144.05;28.10;125687.94;4951609;28;20024;-89
2022/07/28 12:17:25;;;;;;;;;;;;;;;;;;;;;
2022/07/28 12:20:12;;;;;;;2.95;1.17;;;26.60;60.30;;;-144.05;31.05;125687.94;4955574;29;20035;-90
2022/07/28 12:23:03;;;;;;;3.90;1.27;;;26.50;64.10;;;-144.05;28.80;125687.94;4954531;29;20397;-89
2022/07/28 12:30:09;;;;;;;3.35;1.38;;;26.60;62.80;;;-144.05;27.99;125687.94;4950033;29;20040;-89
2022/07/28 12:33:06;;;;;;;;;;;;;;;;;;;;;
2022/07/28 12:35:43;;;;;;;6.15;1.02;;;27.20;58.90;;;-144.05;28.27;125687.94;4955866;28;20035;-89
2022/07/28 12:39:23;;;;;;;3.15;1.00;;;27.30;59.40;;;-144.05;28.10;125687.94;4954492;28;20031;-89
2022/07/28 12:43:08;;;;;;;6.13;1.10;;;27.40;59.80;;;-144.05;27.62;125687.94;4932679;29;20393;-89
2022/07/28 12:45:27;;;;;;;2.65;0.77;;;27.70;58.40;;;-144.05;28.42;125687.94;4957625;28;20028;-90
2022/07/28 12:48:32;;;;;;;;;;;;;;;;;;;;;
2022/07/28 12:51:00;;;;;;;3.28;1.27;;;27.30;58.40;;;-144.05;28.53;125687.94;4957167;29;20679;-90
2022/07/28 12:53:54;;;;;;;4.07;1.30;;;27.40;59.50;;;-144.05;28.08;125687.94;4959142;29;20102;-89
2022/07/28 13:00:29;;;;;;;3.17;1.23;;;27.20;59.80;;;-144.05;29.04;125687.94;4938491;29;20039;-91
2022/07/28 13:03:31;;;;;;;4.57;1.20;;;27.10;60.30;;;-144.05;28.26;125687.94;4959784;29;20027;-91
2022/07/28 13:10:50;;;;;;;;;;;;;;;;;;;;;
2022/07/28 13:14:30;;;;;;;3.80;1.08;;;26.90;58.40;;;-144.05;28.32;125687.94;4962704;29;20098;-87
2022/07/28 13:17:14;;;;;;;2.60;0.88;;;26.70;58.50;;;-144.05;28.46;125687.94;4935450;29;20035;-92
2022/07/28 13:19:40;;;;;;;3.65;1.02;;;27.00;59.60;;;-144.05;28.63;125687.94;4943930;29;20284;-90
2022/07/28 13:22:06;;;;;;;3.92;1.17;;;26.90;59.40;;;-144.05;28.56;125687.94;4968317;28;20031;-90
2022/07/28 13:24:35;;;;;;;4.03;1.30;;;26.90;59.70;;;-144.05;28.63;125687.94;4960344;28;20039;-88
2022/07/28 13:27:09;;;;;;;4.55;1.25;;;26.80;59.40;;;-144.05;28.15;125687.94;4974709;28;20149;-90
2022/07/28 13:29:39;;;;;;;3.72;1.00;;;27.10;59.20;;;-144.05;28.17;125687.94;4944550;28;20046;-88
2022/07/28 13:32:30;;;;;;;5.10;1.08;;;27.30;58.90;;;-144.05;28.07;125687.94;4939071;29;20027;-88
2022/07/28 13:35:23;;;;;;;5.93;1.50;;;27.30;58.30;;;-144.05;28.14;125687.94;4955041;28;20157;-90
2022/07/28 13:38:01;;;;;;;5.90;1.48;;;27.20;58.10;;;-144.05;28.79;125687.94;4933320;29;20042;-90
2022/07/28 13:40:27;;;;;;;4.07;1.50;;;27.00;59.90;;;-144.05;29.01;125687.94;4938842;29;20035;-88
2022/07/28 13:42:55;;;;;;;3.25;1.13;;;27.00;60.50;;;-144.05;28.52;125687.94;4942677;29;20114;-89
2022/07/28 13:45:21;;;;;;;5.78;1.13;;;27.30;60.30;;;-144.05;28.16;125687.94;4957810;28;20094;-90
2022/07/28 13:47:47;;;;;;;4.15;1.40;;;27.70;58.70;;;-144.05;27.79;125687.94;4956518;29;20508;-91
2022/07/28 13:50:16;;;;;;;3.75;1.58;;;27.80;58.00;;;-144.05;27.81;125687.94;4956096;29;20076;-90
2022/07/28 13:52:42;;;;;;;2.78;1.05;;;27.80;57.90;;;-144.05;28.31;125687.94;4940233;29;20121;-90
2022/07/28 13:55:20;;;;;;;4.70;0.95;;;27.60;58.40;;;-144.05;28.29;125687.94;4956702;28;20031;-90
2022/07/28 13:57:47;;;;;;;4.43;1.13;;;27.20;58.60;;;-144.05;28.53;125687.94;4956711;29;20046;-90
2022/07/28 14:00:15;;;;;;;4.60;1.27;;;26.60;58.60;;;-144.05;29.77;125687.94;4956677;29;20027;-90
2022/07/28 14:02:41;;;;;;;2.78;1.10;;;26.00;60.90;;;-144.05;30.22;125687.94;4940154;29;20039;-89
2022/07/28 14:05:08;;;;;;;3.75;1.17;;;25.70;62.30;;;-144.05;30.16;125687.94;4956486;28;20031;-89
2022/07/28 14:07:34;;;;;;;3.03;1.05;;;25.70;62.60;;;-144.05;29.62;125687.94;4956504;29;20032;-91
2022/07/28 14:10:00;;;;;;;8.55;1.65;;;25.60;61.20;;;-144.05;30.00;125687.94;4956594;29;20147;-90
2022/07/28 14:12:29;;;;;;;3.95;1.10;;;25.60;61.80;;;-144.05;30.23;125687.94;4958416;28;20027;-91
2022/07/28 14:14:55;;;;;;;3.80;0.98;;;25.80;62.70;;;-144.05;29.84;125687.94;4972644;28;20027;-90
2022/07/28 14:17:24;;;;;;;4.75;1.02;;;26.00;61.60;;;-144.05;29.72;125687.94;4974327;28;20031;-89
2022/07/28 14:19:50;;;;;;;5.15;1.02;;;26.10;62.10;;;-144.05;29.36;125687.94;4974895;28;20061;-89
2022/07/28 14:22:16;;;;;;;4.10;0.95;;;26.30;61.20;;;-144.05;29.10;125687.94;4974299;28;20035;-90
2022/07/28 14:24:42;;;;;;;4.25;1.23;;;26.40;60.10;;;-144.05;29.27;125687.94;4957622;28;20519;-90
2022/07/28 14:27:09;;;;;;;4.22;1.30;;;26.60;60.80;;;-144.05;29.13;125687.94;4974319;28;20059;-89
2022/07/28 14:29:38;;;;;;;5.22;1.33;;;26.70;60.10;;;-144.05;28.97;125687.94;4977029;28;20035;-89
2022/07/28 14:32:05;;;;;;;3.63;1.05;;;26.80;59.90;;;-144.05;28.87;125687.94;4975097;28;20481;-89
2022/07/28 14:34:31;;;;;;;3.00;1.17;;;26.70;59.60;;;-144.05;28.55;125687.94;4959009;28;20031;-89
2022/07/28 14:36:59;;;;;;;3.13;1.15;;;26.70;59.60;;;-144.05;29.15;125687.94;4972594;28;20063;-90
2022/07/28 14:39:25;;;;;;;2.72;0.90;;;26.60;60.30;;;-144.05;28.73;125687.94;4956695;29;20106;-89
2022/07/28 14:58:49;;;;;;;3.55;1.05;;;26.20;60.10;;;-144.05;30.02;125687.94;4870784;29;20047;-90
2022/07/28 15:01:16;;;;;;;4.90;0.93;;;25.80;60.90;;;-144.05;30.81;125687.94;4919156;29;20259;-88
2022/07/28 15:03:42;;;;;;;6.82;1.08;;;25.60;63.80;;;-144.05;30.51;125687.94;4960722;28;20139;-89
2022/07/28 15:06:09;;;;;;;3.97;1.17;;;25.40;62.10;;;-144.05;30.70;125687.94;4973916;28;20115;-90
2022/07/28 15:08:35;;;;;;;5.13;1.20;;;25.40;63.00;;;-144.05;30.82;125687.94;4973695;28;20027;-90
2022/07/28 15:11:02;;;;;;;6.13;1.30;;;25.50;63.30;;;-144.05;30.53;125687.94;4960525;28;20031;-89
2022/07/28 15:13:28;;;;;;;5.90;1.38;;;25.30;62.00;;;-144.05;30.86;125687.94;4973063;28;20103;-89
2022/07/28 15:15:54;;;;;;;5.40;1.30;;;25.40;62.70;;;-144.05;30.51;125687.94;4970713;28;20118;-89
2022/07/28 15:18:28;;;;;;;4.40;1.15;;;25.40;62.80;;;-144.05;30.49;125687.94;4970597;28;20464;-89
2022/07/28 15:20:57;;;;;;;3.03;1.17;;;25.50;63.00;;;-144.05;30.37;125687.94;4970631;28;20039;-89
2022/07/28 15:23:23;;;;;;;3.78;1.17;;;25.50;62.50;;;-144.05;30.27;125687.94;4971228;28;20027;-89
2022/07/28 15:25:55;;;;;;;3.33;0.95;;;25.60;62.30;;;-144.05;30.67;125687.94;4955816;28;20035;-91
2022/07/28 15:28:27;;;;;;;2.35;1.08;;;25.50;63.60;;;-144.05;30.64;125687.94;4971155;28;20378;-91
2022/07/28 15:30:53;;;;;;;4.03;1.10;;;25.60;63.10;;;-144.05;30.63;125687.94;4970832;28;20081;-91
2022/07/28 15:33:22;;;;;;;4.07;1.15;;;25.60;63.30;;;-144.05;30.40;125687.94;4955043;29;20023;-91
2022/07/28 15:35:49;;;;;;;3.53;1.60;;;25.50;63.10;;;-144.05;30.56;125687.94;4971469;28;20034;-91
2022/07/28 15:38:16;;;;;;;2.95;1.35;;;25.40;62.80;;;-144.05;30.92;125687.94;4971651;28;20519;-88
2022/07/28 15:40:42;;;;;;;3.80;1.20;;;25.40;63.60;;;-144.05;30.96;125687.94;4971748;28;20481;-89
2022/07/28 15:43:08;;;;;;;3.40;1.20;;;25.40;63.20;;;-144.05;30.25;125687.94;4974949;28;20041;-90
2022/07/28 15:45:33;;;;;;;3.30;1.13;;;25.50;62.70;;;-144.05;30.58;125687.94;4972979;28;20027;-90
2022/07/28 15:47:59;;;;;;;3.20;1.75;;;25.60;63.20;;;-144.05;30.33;125687.94;4972225;28;20115;-89
2022/07/28 15:50:26;;;;;;;5.93;1.20;;;25.60;62.50;;;-144.05;30.06;125687.94;4958196;29;20085;-90
2022/07/28 15:52:52;;;;;;;6.25;1.08;;;25.70;61.90;;;-144.05;30.04;125687.94;4972151;28;20035;-89
2022/07/28 15:55:19;;;;;;;3.38;1.00;;;25.60;62.40;;;-144.05;30.49;125687.94;4971298;28;20548;-90
2022/07/28 15:57:49;;;;;;;8.05;1.23;;;25.50;62.30;;;-144.05;30.59;125687.94;4971832;28;20085;-90
2022/07/28 16:00:16;;;;;;;5.50;1.17;;;25.40;62.50;;;-144.05;30.89;125687.94;4973266;28;20378;-90
2022/07/28 16:02:46;;;;;;;4.88;0.98;;;25.20;63.20;;;-144.05;30.96;125687.94;4972216;28;20035;-89
2022/07/28 16:05:20;;;;;;;5.32;1.20;;;25.10;63.60;;;-144.05;30.92;125687.94;4972562;23;20040;-87
2022/07/28 16:07:46;;;;;;;3.35;1.00;;;25.00;63.30;;;-144.05;31.43;125687.94;4905145;29;20059;-89
2022/07/28 16:10:11;;;;;;;6.03;1.30;;;24.80;64.50;;;-144.05;31.55;125687.94;4907196;29;20036;-89
2022/07/28 16:12:41;;;;;;;3.60;1.33;;;24.90;64.70;;;-144.05;31.46;125687.94;4906563;29;20096;-90
2022/07/28 16:15:09;;;;;;;7.13;1.40;;;24.90;64.20;;;-144.05;31.41;125687.94;4940221;29;20028;-88
2022/07/28 16:17:36;;;;;;;3.85;1.38;;;24.70;64.10;;;-144.05;31.67;125687.94;4907310;29;20036;-88
2022/07/28 16:20:04;;;;;;;3.75;1.27;;;24.60;64.90;;;-144.05;31.58;125687.94;4907117;29;20028;-90
2022/07/28 16:22:36;;;;;;;3.45;1.25;;;24.50;65.10;;;-144.05;31.99;125687.94;4906657;29;20123;-90
2022/07/28 16:25:05;;;;;;;6.00;1.17;;;24.40;65.50;;;-144.05;31.57;125687.94;4922586;29;20027;-89
2022/07/28 16:27:34;;;;;;;7.55;1.63;;;24.40;65.10;;;-144.05;32.17;125687.94;4907932;29;20071;-88
2022/07/28 16:30:04;;;;;;;2.72;1.25;;;24.30;65.50;;;-144.05;32.07;125687.94;4924447;29;20055;-89
2022/07/28 16:32:33;;;;;;;5.45;1.42;;;24.30;66.20;;;-144.05;31.88;125687.94;4907547;29;20103;-89
2022/07/28 16:34:59;;;;;;;5.20;1.08;;;24.30;65.30;;;-144.05;32.08;125687.94;4906973;29;20032;-90
2022/07/28 16:37:34;;;;;;;5.53;1.25;;;24.30;65.20;;;-144.05;31.83;125687.94;4923838;29;20521;-90
2022/07/28 16:40:02;;;;;;;4.43;1.30;;;24.30;65.70;;;-144.05;32.57;125687.94;4907839;29;20327;-90
2022/07/28 16:42:28;;;;;;;2.88;1.17;;;24.30;67.10;;;-144.05;31.71;125687.94;4924002;29;20041;-91
2022/07/28 16:44:57;;;;;;;3.17;1.17;;;24.40;65.20;;;-144.05;31.62;125687.94;4923539;29;20127;-90
2022/07/28 16:47:24;;;;;;;4.53;1.58;;;24.30;65.20;;;-144.05;31.52;125687.94;4907980;29;20033;-89
2022/07/28 16:49:55;;;;;;;7.35;1.60;;;24.30;64.80;;;-144.05;32.11;125687.94;4941641;29;20032;-89
2022/07/28 16:52:21;;;;;;;5.93;1.20;;;24.20;66.10;;;-144.05;32.21;125687.94;4923786;29;20106;-88
2022/07/28 16:54:47;;;;;;;2.60;1.10;;;24.10;66.50;;;-144.05;31.79;125687.94;4907542;29;20067;-89
2022/07/28 16:57:13;;;;;;;3.58;1.08;;;24.10;66.20;;;-144.05;32.14;125687.94;4923577;29;20040;-92
2022/07/28 16:59:39;;;;;;;3.70;1.23;;;24.00;66.30;;;-144.05;32.16;125687.94;4923994;29;20040;-91
2022/07/28 17:02:08;;;;;;;5.20;1.25;;;24.00;66.30;;;-144.05;32.15;125687.94;4908456;29;20032;-89
2022/07/28 17:04:34;;;;;;;3.20;1.17;;;23.90;66.50;;;-144.05;32.43;125687.94;4924121;29;20044;-92
2022/07/28 17:07:01;;;;;;;3.70;1.25;;;23.90;67.30;;;-144.05;32.45;125687.94;4931417;29;20580;-88
2022/07/28 17:09:27;;;;;;;4.05;1.45;;;23.90;67.00;;;-144.05;32.76;125687.94;4937918;29;20051;-90
2022/07/28 17:11:53;;;;;;;2.80;1.10;;;23.90;67.50;;;-144.05;32.54;125687.94;4921407;29;20031;-89
2022/07/28 17:14:19;;;;;;;2.65;1.55;;;23.90;67.00;;;-144.05;32.80;125687.94;4920536;29;20032;-90
2022/07/28 17:16:45;;;;;;;3.78;1.35;;;23.90;67.40;;;-144.05;32.62;125687.94;4918908;29;20043;-90
2022/07/28 17:19:11;;;;;;;3.45;1.40;;;23.80;67.50;;;-144.05;32.72;125687.94;4910388;29;20024;-91
2022/07/28 17:21:38;;;;;;;3.95;1.17;;;23.80;67.10;;;-144.05;32.79;125687.94;4909778;29;20028;-88
2022/07/28 17:24:10;;;;;;;4.40;1.10;;;23.70;67.30;;;-144.05;32.78;125687.94;4910482;29;20028;-88
2022/07/28 17:26:46;;;;;;;4.00;1.30;;;23.70;67.60;;;-144.05;32.86;125687.94;4925035;29;20028;-89
2022/07/28 17:29:18;;;;;;;3.20;1.10;;;23.60;67.60;;;-144.05;32.89;125687.94;4895203;29;20040;-89
2022/07/28 17:31:46;;;;;;;2.95;1.08;;;23.50;67.60;;;-144.05;32.84;125687.94;4909662;29;20036;-88
2022/07/28 17:34:13;;;;;;;8.35;1.80;;;23.50;67.50;;;-144.05;32.90;125687.94;4925128;29;20116;-88
2022/07/28 17:36:39;;;;;;;3.45;1.30;;;23.40;67.50;;;-144.05;33.09;125687.94;4923536;29;20036;-86
2022/07/28 17:39:06;;;;;;;4.53;1.00;;;23.30;68.20;;;-144.05;33.23;125687.94;4910346;29;20031;-87
2022/07/28 17:41:35;;;;;;;5.45;1.33;;;23.30;68.10;;;-144.05;33.02;125687.94;4931118;29;20052;-90
2022/07/28 17:44:09;;;;;;;3.55;1.30;;;23.30;67.80;;;-144.05;33.38;125687.94;4908957;29;20111;-90
2022/07/28 17:46:37;;;;;;;5.60;1.42;;;23.30;68.80;;;-144.05;33.21;125687.94;4924288;29;20040;-89
2022/07/28 17:49:07;;;;;;;3.13;1.38;;;23.20;68.70;;;-144.05;33.58;125687.94;4908430;29;20028;-87
2022/07/28 17:51:33;;;;;;;4.22;1.17;;;23.30;69.60;;;-144.05;33.42;125687.94;4924680;29;20035;-89
2022/07/28 18:02:36;;;;;;;4.07;1.83;;;23.20;69.80;;;-144.05;33.77;125687.94;4961826;29;20059;-87
2022/07/28 18:06:43;;;;;;;6.43;1.70;;;23.20;70.00;;;-144.05;33.89;125687.94;4962577;28;20042;-89
2022/07/28 18:09:58;;;;;;;6.00;1.42;;;23.10;70.30;;;-144.05;34.17;125687.94;4964186;29;20055;-89
2022/07/28 18:14:14;;;;;;;5.75;1.55;;;23.00;70.70;;;-144.05;34.43;125687.94;4955503;29;20412;-87
2022/07/28 18:17:40;;;;;;;5.38;1.40;;;22.90;71.30;;;-144.05;34.32;125687.94;4962890;29;20122;-87
2022/07/28 18:20:09;;;;;;;3.63;1.60;;;22.80;71.50;;;-144.05;34.31;125687.94;4946569;29;20035;-89
2022/07/28 18:22:59;;;;;;;2.95;0.90;;;22.80;71.40;;;-144.05;34.60;125687.94;4963739;29;20031;-87
2022/07/28 18:26:46;;;;;;;2.97;1.40;;;22.70;71.70;;;-144.05;34.74;125687.94;4964743;28;20083;-89
2022/07/28 18:29:45;;;;;;;3.53;1.50;;;22.60;72.20;;;-144.05;35.11;125687.94;4965823;28;20038;-89
2022/07/28 18:32:13;;;;;;;3.95;1.30;;;22.50;72.30;;;-144.05;34.73;125687.94;4948899;29;20027;-87
2022/07/28 18:34:40;;;;;;;5.20;1.10;;;22.50;72.10;;;-144.05;34.79;125687.94;4946468;29;20319;-86
2022/07/28 18:37:06;;;;;;;2.72;1.40;;;22.50;72.50;;;-144.05;34.78;125687.94;4944546;29;20039;-86
2022/07/28 18:39:32;;;;;;;3.80;1.08;;;22.40;72.40;;;-144.05;34.82;125687.94;4971478;28;20027;-88
2022/07/28 18:42:00;;;;;;;4.65;1.55;;;22.40;72.50;;;-144.05;34.92;125687.94;4961056;28;20055;-88
2022/07/28 18:44:26;;;;;;;2.58;1.00;;;22.30;73.60;;;-144.05;35.14;125687.94;4970012;28;20062;-87
2022/07/28 18:46:52;;;;;;;6.45;1.55;;;22.30;73.30;;;-144.05;35.17;125687.94;4964136;29;20011;-86
2022/07/28 18:49:23;;;;;;;3.42;1.00;;;22.30;73.30;;;-144.05;35.09;125687.94;4964435;29;20440;-88
2022/07/28 18:51:53;;;;;;;5.43;1.42;;;22.20;73.20;;;-144.05;35.17;125687.94;4963938;29;20023;-89
2022/07/28 18:54:20;;;;;;;5.97;1.67;;;22.20;73.10;;;-144.05;35.31;125687.94;4964881;28;20157;-86
2022/07/28 18:56:46;;;;;;;5.18;1.40;;;22.10;73.60;;;-144.05;35.50;125687.94;4968216;29;20034;-89
2022/07/28 18:59:12;;;;;;;3.13;1.30;;;22.10;74.10;;;-144.05;35.47;125687.94;4964848;29;20130;-89
2022/07/28 19:01:41;;;;;;;4.07;1.15;;;22.00;74.40;;;-144.05;35.65;125687.94;4964621;29;20481;-87
2022/07/28 19:04:11;;;;;;;7.45;1.75;;;22.00;74.60;;;-144.05;35.85;125687.94;4967045;28;20035;-88
2022/07/28 19:06:37;;;;;;;4.82;1.35;;;21.90;75.00;;;-144.05;36.28;125687.94;4966898;29;20027;-89
2022/07/28 19:09:04;;;;;;;4.38;1.58;;;21.90;75.80;;;-144.05;36.13;125687.94;4965074;29;20027;-89
2022/07/28 19:11:52;;;;;;;3.10;1.27;;;21.80;75.70;;;-144.05;36.32;125687.94;4964719;28;20115;-87
2022/07/28 19:14:18;;;;;;;4.63;1.13;;;21.70;76.30;;;-144.05;36.45;125687.94;4964129;28;20043;-89